• Join FlightAware (Why Join?)
  • Login
  • US Flag 
01:54AM EDT


 

Airport Tracker/Info


-or-


 

Live Flight TrackerFlight Track Log ✈ AAL1870 ✈ 02-May-2013 ✈ KLAX - KORD

Flight Track Log - Related Links

Times and Time Zones

All times are in EDT time to prevent confusion due to time zone crossing. See the AAL1870 flight status page for this flight to view local times or setup timezone preferences in your user account.

Time Position Orientation Groundspeed Altitude Reporting Facility
EDT Latitude Longitude Course Direction KTS MPH feet Rate Location/Type
08:41PM 33.9360 -118.4200 262° West 162 186 700  Level FlightAware
08:41PM 33.9340 -118.4430 264° West 182 209 1,400 1,380 Climbing FlightAware
08:41PM 33.9270 -118.4790 257° West 232 267 2,000 1,800 Climbing FlightAware
08:42PM 33.9150 -118.5190 250° West 258 297 3,200 2,700 Climbing FlightAware
08:42PM 33.9030 -118.5520 246° West 262 302 4,500 3,000 Climbing FlightAware
08:43PM 33.8930 -118.5680 233° Southwest 267 307 5,200 3,000 Climbing FlightAware
08:43PM 33.8770 -118.5790 210° Southwest 269 310 6,000 3,120 Climbing FlightAware
08:43PM 33.8670 -118.5810 189° South 267 307 6,500 3,120 Climbing FlightAware
08:44PM 33.8340 -118.5630 156° South 263 303 8,100 3,180 Climbing FlightAware
08:44PM 33.8260 -118.5380 111° Southeast 266 306 8,900 2,880 Climbing FlightAware
08:44PM 33.8470 -118.4890 63° Northeast 286 329 10,300 2,700 Climbing FlightAware
08:45PM 33.8940 -118.4550 31° Northeast 299 344 12,100 2,520 Climbing FlightAware
08:46PM 33.9390 -118.4160 36° Northeast 314 361 13,700 1,920 Climbing FlightAware
08:46PM 33.9770 -118.3570 52° Northeast 351 404 14,700 1,440 Climbing FlightAware
08:47PM 34.0210 -118.2770 56° Northeast 391 450 15,800 1,980 Climbing FlightAware
08:48PM 34.0670 -118.1960 56° Northeast 396 456 17,700 2,520 Climbing FlightAware
08:48PM 34.1080 -118.1240 55° Northeast 402 463 19,400 2,460 Climbing FlightAware
08:49PM 34.1500 -118.0490 56° Northeast 406 467 21,000 2,100 Climbing FlightAware
08:50PM 34.1980 -117.9630 56° Northeast 420 483 22,400 1,800 Climbing FlightAware
08:51PM 34.2430 -117.8830 56° Northeast 428 493 23,600 1,860 Climbing FlightAware
08:51PM 34.2880 -117.8030 56° Northeast 434 499 24,900 1,800 Climbing FlightAware
08:52PM 34.3430 -117.7150 53° Northeast 439 505 26,200 1,440 Climbing FlightAware
08:53PM 34.3970 -117.6400 49° Northeast 446 513 27,000 540 Climbing FlightAware
08:53PM 34.4570 -117.5550 49° Northeast 446 513 27,000  Level FlightAware
08:54PM 34.5090 -117.4790 50° Northeast 446 513 27,000  Level FlightAware
08:55PM 34.5620 -117.4030 50° Northeast 447 514 27,000 540 Level FlightAware
08:55PM 34.6230 -117.3170 49° Northeast 454 522 27,800 1,020 Climbing FlightAware
08:56PM 34.6760 -117.2400 50° Northeast 462 532 28,500 1,020 Climbing FlightAware
08:57PM 34.7410 -117.1470 50° Northeast 475 547 29,300 720 Climbing FlightAware
08:57PM 34.7880 -117.0810 49° Northeast 478 550 29,500 120 Climbing FlightAware
08:58PM 34.8490 -116.9950 49° Northeast 478 550 29,500  Level FlightAware
08:59PM 34.8980 -116.9260 49° Northeast 478 550 29,500  Level FlightAware
09:00PM 34.9480 -116.8560 49° Northeast 478 550 29,500 3,300 Level FlightAware
09:00PM 35.0360 -116.7190 52° Northeast 467 537 34,200 3,840 Climbing FlightAware
09:01PM 35.0920 -116.6360 50° Northeast 468 539 35,000 1,080 Climbing FlightAware
09:02PM 35.1480 -116.5550 50° Northeast 467 537 35,700 1,020 Climbing FlightAware
09:02PM 35.2080 -116.4660 50° Northeast 462 532 36,500 720 Climbing FlightAware
09:03PM 35.2730 -116.3710 50° Northeast 462 532 36,900 240 Climbing FlightAware
09:04PM 35.3200 -116.3030 50° Northeast 462 532 36,900 60 Level FlightAware
09:05PM 35.3920 -116.1940 51° Northeast 463 533 37,000 60 Climbing FlightAware
09:05PM 35.4510 -116.1070 50° Northeast 462 532 37,000  Level FlightAware
09:06PM 35.5050 -116.0280 50° Northeast 463 533 37,000  Level FlightAware
09:07PM 35.5710 -115.9290 51° Northeast 464 534 37,000  Level FlightAware
09:08PM 35.6210 -115.8540 51° Northeast 464 534 37,000  Level FlightAware
09:08PM 35.6860 -115.7560 51° Northeast 463 533 37,000  Level FlightAware
09:09PM 35.7410 -115.6740 50° Northeast 463 533 37,000  Level FlightAware
09:10PM 35.7960 -115.5910 51° Northeast 463 533 37,000  Level FlightAware
09:10PM 35.8540 -115.5030 51° Northeast 463 533 37,000  Level FlightAware
09:11PM 35.9090 -115.4190 51° Northeast 463 533 37,000  Level FlightAware
09:12PM 35.9700 -115.3270 51° Northeast 464 534 37,000  Level FlightAware
09:12PM 36.0260 -115.2420 51° Northeast 464 534 37,000  Level FlightAware
09:13PM 36.0740 -115.1570 55° Northeast 473 544 37,000  Level FlightAware
09:14PM 36.1010 -115.0400 74° East 482 555 37,000  Level FlightAware
09:15PM 36.1200 -114.9340 77° East 481 554 37,000  Level FlightAware
09:15PM 36.1420 -114.8090 78° East 479 551 37,000  Level FlightAware
09:16PM 36.1600 -114.7040 78° East 479 551 37,000  Level FlightAware
09:16PM 36.1740 -114.6230 78° East 479 551 37,000  Level FlightAware
09:17PM 36.1920 -114.5150 78° East 479 551 37,000  Level FlightAware
09:18PM 36.2100 -114.4070 78° East 479 551 37,000  Level FlightAware
09:19PM 36.2310 -114.2900 77° East 479 551 37,000  Level FlightAware
09:19PM 36.2490 -114.1850 78° East 480 552 37,000  Level FlightAware
09:20PM 36.2690 -114.0620 79° East 479 551 37,000  Level FlightAware
09:21PM 36.2870 -113.9550 78° East 480 552 37,000  Level FlightAware
09:21PM 36.3060 -113.8420 78° East 479 551 37,000  Level FlightAware
09:22PM 36.3250 -113.7250 79° East 479 551 37,000  Level FlightAware
09:23PM 36.3430 -113.6170 78° East 479 551 37,000  Level FlightAware
09:23PM 36.3600 -113.5110 79° East 478 550 37,000  Level FlightAware
09:24PM 36.3790 -113.4000 78° East 478 550 37,000  Level FlightAware
09:25PM 36.3940 -113.3080 79° East 478 550 37,000  Level FlightAware
09:26PM 36.4160 -113.1660 79° East 479 551 37,000  Level FlightAware
09:26PM 36.4400 -113.0200 78° East 480 552 37,000  Level FlightAware
09:27PM 36.4550 -112.9280 79° East 480 552 37,000  Level FlightAware
09:28PM 36.4710 -112.8360 78° East 480 552 37,000  Level FlightAware
09:28PM 36.4870 -112.7440 78° East 480 552 37,000  Level FlightAware
09:29PM 36.5060 -112.6290 78° East 480 552 37,000  Level FlightAware
09:30PM 36.5290 -112.4410 81° East 485 558 37,000  Level FlightAware
09:31PM 36.5420 -112.3570 79° East 485 558 37,000  Level FlightAware
09:31PM 36.5600 -112.2400 79° East 485 558 37,000  Level FlightAware
09:32PM 36.5750 -112.1470 79° East 485 558 37,000  Level FlightAware
09:33PM 36.5900 -112.0540 79° East 485 558 37,000  Level FlightAware
09:33PM 36.6040 -111.9600 79° East 485 558 37,000  Level FlightAware
09:34PM 36.6190 -111.8670 79° East 485 558 37,000  Level FlightAware
09:35PM 36.6370 -111.7500 79° East 485 558 37,000  Level FlightAware
09:36PM 36.6510 -111.6570 79° East 485 558 37,000  Level FlightAware
09:36PM 36.6660 -111.5640 79° East 485 558 37,000  Level FlightAware
09:37PM 36.6800 -111.4700 79° East 485 558 37,000  Level FlightAware
09:38PM 36.6950 -111.3770 79° East 485 558 37,000  Level FlightAware
09:38PM 36.7130 -111.2600 79° East 485 558 37,000  Level FlightAware
09:39PM 36.7280 -111.1670 79° East 485 558 37,000  Level FlightAware
09:40PM 36.7420 -111.0730 79° East 485 558 37,000  Level FlightAware
09:41PM 36.7875 -110.6569 79° East 479 551 37,000  Level Denver Center
09:42PM 36.8092 -110.4958 80° East 476 548 37,000  Level Denver Center
09:43PM 36.8308 -110.3344 80° East 474 545 37,000  Level Denver Center
09:44PM 36.8575 -110.1506 80° East 476 548 37,000  Level Denver Center
09:45PM 36.8769 -109.9958 81° East 472 543 37,000  Level Denver Center
09:46PM 36.9006 -109.8164 81° East 471 542 37,000  Level Denver Center
09:47PM 36.9192 -109.6619 81° East 469 540 37,000  Level Denver Center
09:48PM 36.9450 -109.4794 80° East 475 547 37,000  Level Denver Center
09:49PM 36.9636 -109.3233 81° East 474 545 37,000  Level Denver Center
09:50PM 36.9897 -109.1144 81° East 474 545 37,000  Level Denver Center
09:51PM 37.0075 -108.9583 82° East 472 543 37,000  Level Denver Center
09:53PM 37.0306 -108.7761 81° East 472 543 37,000  Level Denver Center
09:54PM 37.0492 -108.6178 82° East 476 548 37,000  Level Denver Center
09:55PM 37.0700 -108.4356 82° East 474 545 37,000  Level Denver Center
09:56PM 37.0889 -108.2794 81° East 472 543 37,000  Level Denver Center
09:57PM 37.1097 -108.0969 82° East 474 545 37,000  Level Denver Center
09:58PM 37.1278 -107.9392 82° East 475 547 37,000  Level Denver Center
09:59PM 37.1481 -107.7572 82° East 473 544 37,000  Level Denver Center
10:00PM 37.1656 -107.5992 82° East 475 547 37,000  Level Denver Center
10:01PM 37.1828 -107.4419 82° East 477 549 37,000  Level Denver Center
10:02PM 37.2033 -107.2589 82° East 473 544 37,000  Level Denver Center
10:03PM 37.2197 -107.0997 83° East 479 551 37,000  Level Denver Center
10:04PM 37.2386 -106.9144 83° East 478 550 37,000  Level Denver Center
10:05PM 37.2539 -106.7839 82° East 475 547 37,000  Level Denver Center
10:06PM 37.2739 -106.5719 83° East 478 550 37,000  Level Denver Center
10:07PM 37.2906 -106.4167 82° East 471 542 37,000  Level Denver Center
10:13PM 37.4062 -105.3860 82° East 456 525 37,000  Level FlightAware ADS-B
10:14PM 37.4173 -105.3010 81° East 456 525 37,000  Level FlightAware ADS-B
10:14PM 37.4284 -105.2150 81° East 463 533 37,000  Level FlightAware ADS-B
10:15PM 37.4405 -105.1200 81° East 462 532 37,000  Level FlightAware ADS-B
10:16PM 37.4512 -105.0360 81° East 461 531 37,000  Level FlightAware ADS-B
10:17PM 37.4740 -104.8550 81° East 461 531 37,000  Level FlightAware ADS-B
10:19PM 37.5127 -104.5460 81° East 470 541 37,000  Level FlightAware ADS-B
10:19PM 37.5232 -104.4620 81° East 471 542 37,000  Level FlightAware ADS-B
10:20PM 37.5444 -104.2840 81° East 468 539 37,000  Level FlightAware ADS-B
10:21PM 37.5554 -104.1920 81° East 468 539 37,000  Level FlightAware ADS-B
10:21PM 37.5654 -104.1100 81° East 474 545 37,000  Level FlightAware ADS-B
10:22PM 37.5757 -104.0240 81° East 474 545 37,000  Level FlightAware ADS-B
10:23PM 37.5902 -103.9000 82° East 475 547 37,000  Level FlightAware ADS-B
10:23PM 37.6001 -103.8170 81° East 477 549 37,000  Level FlightAware ADS-B
10:24PM 37.6097 -103.7340 82° East 477 549 37,000  Level FlightAware ADS-B
10:24PM 37.6190 -103.6510 82° East 477 549 37,000  Level FlightAware ADS-B
10:25PM 37.6286 -103.5680 82° East 477 549 37,000  Level FlightAware ADS-B
10:25PM 37.6383 -103.4820 82° East 478 550 37,000  Level FlightAware ADS-B
10:26PM 37.6474 -103.4000 82° East 474 545 37,000  Level FlightAware ADS-B
10:26PM 37.6571 -103.3180 81° East 469 540 37,000  Level FlightAware ADS-B
10:27PM 37.6665 -103.2360 82° East 469 540 37,000  Level FlightAware ADS-B
10:27PM 37.6759 -103.1530 82° East 469 540 37,000  Level FlightAware ADS-B
10:28PM 37.6853 -103.0680 82° East 467 537 37,000  Level FlightAware ADS-B
10:28PM 37.6947 -102.9810 82° East 466 536 37,000  Level FlightAware ADS-B
10:29PM 37.7035 -102.8990 82° East 466 536 37,000  Level FlightAware ADS-B
10:29PM 37.7126 -102.8150 82° East 465 535 37,000  Level FlightAware ADS-B
10:30PM 37.7217 -102.7300 82° East 465 535 37,000  Level FlightAware ADS-B
10:30PM 37.7305 -102.6480 82° East 466 536 37,000  Level FlightAware ADS-B
10:31PM 37.7390 -102.5660 83° East 465 535 37,000  Level FlightAware ADS-B
10:31PM 37.7474 -102.4860 82° East 465 535 37,000  Level FlightAware ADS-B
10:32PM 37.7561 -102.4040 82° East 465 535 37,000  Level FlightAware ADS-B
10:32PM 37.7648 -102.3210 82° East 467 537 37,000  Level FlightAware ADS-B
10:33PM 37.7735 -102.2370 83° East 468 539 37,000  Level FlightAware ADS-B
10:33PM 37.7819 -102.1530 83° East 469 540 37,000  Level FlightAware ADS-B
10:34PM 37.7969 -102.0050 83° East 469 540 37,000  Level FlightAware ADS-B
10:35PM 37.8044 -101.9258 83° East 469 540 37,000  Level Kansas City Center
10:36PM 37.8228 -101.7425 83° East 470 541 37,000  Level Denver Center
10:37PM 37.8383 -101.5831 83° East 474 545 37,000  Level Kansas City Center
10:37PM 37.8383 -101.5831 83° East 475 547 37,000  Level Denver Center
10:38PM 37.8539 -101.4231 83° East 477 549 37,000  Level Kansas City Center
10:39PM 37.8722 -101.2347 83° East 481 554 37,000  Level Kansas City Center
10:40PM 37.8878 -101.0686 83° East 491 565 37,000  Level Kansas City Center
10:41PM 37.9033 -100.9042 83° East 489 563 37,000  Level Kansas City Center
10:42PM 37.9244 -100.7133 82° East 486 559 37,000  Level Kansas City Center
10:43PM 37.9733 -100.5631 68° East 480 552 37,000  Level Kansas City Center
10:44PM 38.0233 -100.4144 67° East 477 549 37,000  Level Kansas City Center
10:45PM 38.0822 -100.2411 67° East 479 551 37,000  Level Kansas City Center
10:46PM 38.1319 -100.0908 67° East 482 555 37,000  Level Kansas City Center
10:47PM 38.1825 -99.9403 67° East 483 556 37,000  Level Kansas City Center
10:48PM 38.2400 -99.7653 67° East 481 554 37,000  Level Kansas City Center
10:49PM 38.2886 -99.6158 67° East 479 551 37,000  Level Kansas City Center
10:50PM 38.3411 -99.4561 67° East 482 555 37,000  Level Kansas City Center
10:51PM 38.3931 -99.2978 67° East 481 554 37,000  Level Kansas City Center
10:52PM 38.4453 -99.1392 67° East 483 556 37,000  Level Kansas City Center
10:53PM 38.4969 -98.9806 67° East 484 557 37,000  Level Kansas City Center
10:54PM 38.5478 -98.8203 68° East 484 557 37,000  Level Kansas City Center
10:55PM 38.6000 -98.6603 67° East 485 558 37,000  Level Kansas City Center
10:56PM 38.6506 -98.5000 68° East 484 557 37,000  Level Kansas City Center
10:57PM 38.7117 -98.3086 68° East 482 555 37,000  Level Kansas City Center
10:58PM 38.7625 -98.1475 68° East 485 558 37,000  Level Kansas City Center
10:59PM 38.8131 -97.9844 68° East 488 562 37,000  Level Kansas City Center
11:00PM 38.8589 -97.8389 68° East 488 562 37,000  Level Kansas City Center
11:01PM 38.9128 -97.6592 69° East 483 556 37,000  Level Kansas City Center
11:02PM 38.9586 -97.4994 70° East 482 555 37,000  Level Kansas City Center
11:03PM 39.0047 -97.3236 71° East 478 550 37,000  Level Kansas City Center
11:04PM 39.0453 -97.1689 71° East 476 548 37,000  Level Kansas City Center
11:05PM 39.0858 -97.0150 71° East 475 547 37,000  Level Kansas City Center
11:12PM 39.3130 -96.1220 71° East 492 566 37,000  Level FlightAware
11:12PM 39.3390 -96.0200 72° East 492 566 37,000  Level FlightAware
11:13PM 39.3780 -95.8610 72° East 493 567 37,000  Level FlightAware
11:14PM 39.4120 -95.7250 72° East 492 566 37,000  Level FlightAware
11:14PM 39.4430 -95.6000 72° East 485 558 37,000  Level FlightAware
11:15PM 39.4700 -95.4880 73° East 479 551 37,000  Level FlightAware
11:16PM 39.4960 -95.3790 73° East 480 552 37,000  Level FlightAware
11:17PM 39.5210 -95.2760 73° East 480 552 37,000  Level FlightAware
11:17PM 39.5530 -95.1480 72° East 481 554 37,000  Level FlightAware
11:18PM 39.5790 -95.0370 73° East 480 552 37,000  Level FlightAware
11:19PM 39.6110 -94.9070 72° East 478 550 37,000  Level FlightAware
11:19PM 39.6410 -94.7770 73° East 477 549 37,000  Level FlightAware
11:20PM 39.6660 -94.6730 73° East 478 550 37,000  Level FlightAware
11:21PM 39.6910 -94.5680 73° East 478 550 37,000  Level FlightAware
11:21PM 39.7110 -94.4840 73° East 478 550 37,000  Level FlightAware
11:22PM 39.7660 -94.2480 73° East 480 552 37,000  Level FlightAware
11:23PM 39.7950 -94.1220 73° East 482 555 37,000  Level FlightAware
11:24PM 39.8200 -94.0110 74° East 480 552 37,000  Level FlightAware
11:24PM 39.8450 -93.9010 73° East 479 551 37,000  Level FlightAware
11:25PM 39.8740 -93.7760 73° East 478 550 37,000  Level FlightAware
11:26PM 39.8980 -93.6670 74° East 478 550 37,000  Level FlightAware
11:26PM 39.9260 -93.5430 74° East 477 549 37,000  Level FlightAware
11:27PM 39.9500 -93.4340 74° East 477 549 37,000  Level FlightAware
11:28PM 39.9750 -93.3240 73° East 476 548 37,000  Level FlightAware
11:28PM 40.0030 -93.1960 74° East 476 548 37,000  Level FlightAware
11:29PM 40.0270 -93.0890 74° East 476 548 37,000  Level FlightAware
11:30PM 40.0550 -92.9620 74° East 476 548 37,000  Level FlightAware
11:31PM 40.0870 -92.8170 74° East 474 545 37,000  Level FlightAware
11:31PM 40.1110 -92.7030 75° East 473 544 37,000  Level FlightAware
11:32PM 40.1350 -92.5970 73° East 476 548 37,000  Level FlightAware
11:33PM 40.1770 -92.4770 65° Northeast 483 556 37,000  Level FlightAware
11:34PM 40.2150 -92.3710 65° Northeast 483 556 37,000  Level FlightAware
11:34PM 40.2580 -92.2520 65° Northeast 482 555 37,000  Level FlightAware
11:35PM 40.2970 -92.1430 65° Northeast 482 555 37,000  Level FlightAware
11:36PM 40.3390 -92.0260 65° Northeast 484 557 37,000  Level FlightAware
11:36PM 40.3740 -91.9260 65° Northeast 484 557 37,000  Level FlightAware
11:37PM 40.4140 -91.8130 65° Northeast 487 560 37,000  Level FlightAware
11:38PM 40.4570 -91.6900 65° Northeast 486 559 37,000  Level FlightAware
11:38PM 40.4920 -91.5860 66° East 487 560 37,000  Level FlightAware
11:39PM 40.5420 -91.4380 66° East 487 560 37,000  Level FlightAware
11:40PM 40.5840 -91.3150 66° East 487 560 37,000  Level FlightAware
11:41PM 40.6220 -91.2050 65° Northeast 486 559 37,000  Level FlightAware
11:41PM 40.6560 -91.1030 66° East 485 558 37,000  Level FlightAware
11:42PM 40.6990 -90.9780 66° East 485 558 37,000  Level FlightAware
11:43PM 40.7350 -90.8710 66° East 485 558 37,000 -120 Level FlightAware
11:44PM 40.7760 -90.7500 66° East 483 556 36,900 -600 Descending FlightAware
11:44PM 40.8130 -90.6400 66° East 486 559 36,200 -1,020 Descending FlightAware
11:45PM 40.8530 -90.5210 66° East 493 567 35,500 -960 Descending FlightAware
11:46PM 40.8900 -90.4110 66° East 495 570 34,900 -1,020 Descending FlightAware
11:46PM 40.9280 -90.2960 66° East 494 568 34,200 -1,020 Descending FlightAware
11:47PM 40.9680 -90.1740 66° East 490 564 33,500 -1,020 Descending FlightAware
11:48PM 41.0060 -90.0600 66° East 490 564 32,800 -1,920 Descending FlightAware
11:48PM 41.0420 -89.9510 66° East 486 559 31,000 -2,580 Descending FlightAware
11:49PM 41.0810 -89.8310 67° East 474 545 29,200 -2,400 Descending FlightAware
11:50PM 41.1150 -89.7250 67° East 462 532 27,600 -2,340 Descending FlightAware
11:51PM 41.1530 -89.6090 66° East 450 518 25,900 -2,340 Descending FlightAware
11:51PM 41.1900 -89.5120 63° Northeast 445 512 24,300 -2,340 Descending FlightAware
11:52PM 41.2330 -89.4060 62° Northeast 435 501 22,600 -2,280 Descending FlightAware
11:53PM 41.2710 -89.3130 61° Northeast 426 490 21,100 -2,280 Descending FlightAware
11:53PM 41.3080 -89.2220 62° Northeast 416 479 19,600 -2,220 Descending FlightAware
11:54PM 41.3480 -89.1220 62° Northeast 399 459 18,000 -2,280 Descending FlightAware
11:55PM 41.3820 -89.0370 62° Northeast 386 444 16,400 -2,280 Descending FlightAware
11:55PM 41.4150 -88.9540 62° Northeast 372 428 15,000 -2,100 Descending FlightAware
11:56PM 41.4490 -88.8660 63° Northeast 358 412 13,500 -1,980 Descending FlightAware
11:57PM 41.4800 -88.7890 62° Northeast 346 398 12,200 -1,920 Descending FlightAware
11:58PM 41.5120 -88.7060 63° Northeast 337 388 10,800 -1,020 Descending FlightAware
11:58PM 41.5390 -88.6390 62° Northeast 300 345 10,800  Level FlightAware
11:59PM 41.5690 -88.5640 62° Northeast 295 339 10,800  Level FlightAware
12:00AM 41.5950 -88.5000 61° Northeast 295 339 10,800 -480 Level FlightAware
12:00AM 41.6250 -88.4390 57° Northeast 296 341 10,200 -1,140 Descending FlightAware
12:01AM 41.6500 -88.3960 52° Northeast 291 335 9,500 -1,440 Descending FlightAware
12:01AM 41.6740 -88.3550 52° Northeast 288 331 8,800 -1,440 Descending FlightAware
12:02AM 41.6960 -88.3180 51° Northeast 286 329 8,200 -1,500 Descending FlightAware
12:02AM 41.7100 -88.3020 40° Northeast 294 338 7,800 -1,440 Descending FlightAware
12:02AM 41.7290 -88.2930 19° North 302 348 7,500 -1,500 Descending FlightAware
12:03AM 41.7640 -88.2810 14° North 302 348 6,800 -1,080 Descending FlightAware
12:03AM 41.7830 -88.2740 15° North 298 343 6,800  Level FlightAware
12:03AM 41.8230 -88.2600 15° North 266 306 6,800 -660 Level FlightAware
12:04AM 41.8510 -88.2510 13° North 255 293 6,200 -1,560 Descending FlightAware
12:04AM 41.8860 -88.2390 14° North 257 296 5,400 -900 Descending FlightAware
12:05AM 41.9180 -88.2290 13° North 223 257 5,300 -600 Descending FlightAware
12:05AM 41.9430 -88.2220 12° North 214 246 4,900 -1,080 Descending FlightAware
12:06AM 41.9560 -88.2130 27° Northeast 201 231 4,600 -1,200 Descending FlightAware
12:06AM 41.9610 -88.2010 61° Northeast 185 213 4,300 -900 Descending FlightAware
12:06AM 41.9680 -88.1730 71° East 167 192 4,000 -780 Descending FlightAware
12:07AM 41.9680 -88.1420 90° East 165 190 3,600 -900 Descending FlightAware
12:07AM 41.9680 -88.1160 90° East 164 189 3,200 -900 Descending FlightAware
12:08AM 41.9680 -88.0880 90° East 163 188 2,800 -900 Descending FlightAware
12:08AM 41.9690 -88.0560 88° East 158 182 2,300 -900 Descending FlightAware
12:09AM 41.9690 -88.0210 90° East 140 161 1,800 -780 Descending FlightAware
12:09AM 41.9690 -87.9950 90° East 139 160 1,400 -780 Descending FlightAware
12:10AM 41.9690 -87.9720 90° East 143 165 1,100 -780 Descending FlightAware
12:10AM 41.9690 -87.9470 90° East 141 162 700 -840 Descending FlightAware